Time;durP1;ratioP1;P1;durP2;ratioP2;P2;SDS_P1;SDS_P2;PMS_P1;PMS_P2;Temp;Humidity;BMP_temperature;BMP_pressure;BME280_temperature;BME280_humidity;BME280_pressure;Samples;Min_cycle;Max_cycle;Signal;HPM_P1;HPM_P2
2023/04/30 00:02:14;;;;;;;9.13;3.20;;;8.80;99.90;;;;;;5047639;28;20045;-64
2023/04/30 00:04:40;;;;;;;5.88;2.88;;;8.70;99.90;;;;;;5049763;28;20048;-64
2023/04/30 00:07:05;;;;;;;7.85;3.30;;;8.70;99.90;;;;;;5055588;28;20087;-64
2023/04/30 00:09:31;;;;;;;6.90;3.25;;;8.70;99.90;;;;;;5045617;28;20048;-64
2023/04/30 00:11:57;;;;;;;7.32;3.20;;;8.60;99.90;;;;;;5040894;28;20049;-65
2023/04/30 00:14:22;;;;;;;8.82;3.10;;;8.50;99.90;;;;;;5046854;28;20063;-65
2023/04/30 00:16:48;;;;;;;7.25;3.33;;;8.50;99.90;;;;;;5045012;28;20040;-63
2023/04/30 00:19:13;;;;;;;4.63;2.97;;;8.40;99.90;;;;;;5036111;28;20038;-64
2023/04/30 00:21:39;;;;;;;8.50;3.30;;;8.40;99.90;;;;;;5039585;28;20128;-63
2023/04/30 00:24:05;;;;;;;7.57;3.90;;;8.30;99.90;;;;;;5030817;28;20045;-65
2023/04/30 00:26:31;;;;;;;5.63;2.97;;;8.30;99.90;;;;;;5047140;28;20043;-63
2023/04/30 00:28:56;;;;;;;9.27;3.40;;;8.30;99.90;;;;;;5037333;28;20060;-64
2023/04/30 00:31:22;;;;;;;7.03;3.22;;;8.20;99.90;;;;;;5044636;28;20033;-64
2023/04/30 00:33:48;;;;;;;8.52;3.05;;;8.20;99.90;;;;;;5043532;28;20128;-65
2023/04/30 00:36:13;;;;;;;9.07;2.90;;;8.10;99.90;;;;;;5043902;28;21873;-65
2023/04/30 00:38:39;;;;;;;7.60;3.40;;;8.00;99.90;;;;;;5037943;28;20049;-62
2023/04/30 00:41:05;;;;;;;5.88;3.22;;;7.90;99.90;;;;;;5040556;28;20449;-64
2023/04/30 00:43:30;;;;;;;5.30;2.95;;;7.90;99.90;;;;;;5046348;28;20029;-64
2023/04/30 00:45:57;;;;;;;7.05;3.60;;;7.90;99.90;;;;;;5046920;28;20055;-64
2023/04/30 00:48:23;;;;;;;5.18;3.08;;;7.80;99.90;;;;;;5043592;28;20037;-64
2023/04/30 00:50:49;;;;;;;6.40;3.45;;;7.80;99.90;;;;;;5038782;28;20043;-64
2023/04/30 00:53:16;;;;;;;7.03;3.20;;;7.70;99.90;;;;;;5062016;28;20479;-62
2023/04/30 00:55:42;;;;;;;6.18;3.13;;;7.70;99.90;;;;;;5023104;28;20055;-64
2023/04/30 00:58:08;;;;;;;9.05;4.32;;;7.70;99.90;;;;;;5048932;28;20051;-64
2023/04/30 01:00:35;;;;;;;7.55;3.17;;;7.70;99.90;;;;;;5040451;28;20499;-64
2023/04/30 01:03:01;;;;;;;9.02;3.40;;;7.60;99.90;;;;;;5037779;28;20062;-63
2023/04/30 01:05:26;;;;;;;8.50;3.28;;;7.60;99.90;;;;;;5035946;28;20049;-63
2023/04/30 01:07:54;;;;;;;9.27;2.90;;;7.60;99.90;;;;;;5045317;28;20040;-64
2023/04/30 01:10:24;;;;;;;7.15;2.92;;;7.50;99.90;;;;;;5042062;28;20176;-64
2023/04/30 01:13:05;;;;;;;6.32;3.05;;;7.50;99.90;;;;;;5039566;28;20550;-67
2023/04/30 01:15:33;;;;;;;4.05;2.80;;;7.40;99.90;;;;;;5043051;28;20063;-64
2023/04/30 01:18:04;;;;;;;7.28;2.60;;;7.40;99.90;;;;;;5039394;28;20045;-63
2023/04/30 01:20:32;;;;;;;4.15;2.75;;;7.30;99.90;;;;;;5045186;28;20099;-65
2023/04/30 01:23:13;;;;;;;5.47;3.15;;;7.20;99.90;;;;;;5055197;28;20044;-64
2023/04/30 01:25:39;;;;;;;6.68;3.10;;;7.20;99.90;;;;;;5036391;28;20040;-64
2023/04/30 01:28:15;;;;;;;4.63;2.70;;;7.20;99.90;;;;;;5054479;28;20472;-65
2023/04/30 01:30:45;;;;;;;6.05;3.35;;;7.10;99.90;;;;;;5046157;28;20124;-65
2023/04/30 01:33:12;;;;;;;8.85;3.05;;;7.10;99.90;;;;;;5038384;28;20076;-63
2023/04/30 01:36:08;;;;;;;9.35;3.58;;;7.00;99.90;;;;;;5040977;28;20036;-65
2023/04/30 01:39:03;;;;;;;7.05;3.20;;;6.90;99.90;;;;;;5048267;28;20785;-63
2023/04/30 01:42:18;;;;;;;8.30;3.30;;;6.90;99.90;;;;;;5058475;28;20496;-66
2023/04/30 01:45:04;;;;;;;8.23;4.40;;;6.90;99.90;;;;;;5010054;28;20057;-65
2023/04/30 01:48:02;;;;;;;8.23;3.65;;;6.90;99.90;;;;;;5004181;28;20431;-64
2023/04/30 01:50:37;;;;;;;12.07;4.18;;;6.90;99.90;;;;;;4949160;29;20051;-66
2023/04/30 01:53:08;;;;;;;7.00;3.40;;;6.80;99.90;;;;;;4925027;29;20067;-64
2023/04/30 01:55:42;;;;;;;12.75;4.10;;;6.80;99.90;;;;;;4932166;29;20067;-64
2023/04/30 01:58:12;;;;;;;6.38;3.72;;;6.80;99.90;;;;;;4942117;28;20059;-67
2023/04/30 02:00:38;;;;;;;6.97;3.50;;;6.70;99.90;;;;;;4927488;28;20063;-63
2023/04/30 02:03:03;;;;;;;6.60;3.63;;;6.70;99.90;;;;;;4922637;28;20058;-64
2023/04/30 02:05:30;;;;;;;7.55;3.67;;;6.70;99.90;;;;;;4946108;28;20035;-64
2023/04/30 02:07:55;;;;;;;8.48;3.72;;;6.60;99.90;;;;;;4947396;28;20150;-65
2023/04/30 02:10:22;;;;;;;10.20;3.72;;;6.60;99.90;;;;;;4935708;29;20352;-64
2023/04/30 02:12:48;;;;;;;6.43;3.08;;;6.60;99.90;;;;;;4952424;28;20042;-63
2023/04/30 02:15:14;;;;;;;8.90;3.53;;;6.60;99.90;;;;;;4948727;28;20054;-62
2023/04/30 02:17:39;;;;;;;7.47;3.20;;;6.60;99.90;;;;;;4947702;28;20039;-64
2023/04/30 02:20:06;;;;;;;7.88;3.13;;;6.50;99.90;;;;;;4953611;28;20507;-65
2023/04/30 02:22:32;;;;;;;5.05;3.30;;;6.50;99.90;;;;;;4970960;28;20117;-63
2023/04/30 02:24:58;;;;;;;6.38;3.45;;;6.50;99.90;;;;;;4972570;28;20042;-64
2023/04/30 02:27:25;;;;;;;10.43;3.50;;;6.40;99.90;;;;;;5011770;28;20376;-63
2023/04/30 02:29:51;;;;;;;7.30;3.53;;;6.50;99.90;;;;;;5049270;28;20032;-63
2023/04/30 02:32:17;;;;;;;6.13;3.40;;;6.40;99.90;;;;;;5049860;28;20055;-64
2023/04/30 02:34:43;;;;;;;5.65;3.45;;;6.40;99.90;;;;;;5050138;28;20128;-64
2023/04/30 02:37:09;;;;;;;7.38;3.35;;;6.30;99.90;;;;;;5050991;28;20108;-65
2023/04/30 02:39:35;;;;;;;5.10;3.22;;;6.30;99.90;;;;;;5046576;28;20045;-62
2023/04/30 02:42:00;;;;;;;6.72;4.07;;;6.30;99.90;;;;;;5051899;28;20068;-62
2023/04/30 02:44:27;;;;;;;7.28;3.20;;;6.30;99.90;;;;;;5050441;28;20083;-64
2023/04/30 02:46:53;;;;;;;7.55;3.55;;;6.20;99.90;;;;;;5050444;28;20037;-64
2023/04/30 02:49:18;;;;;;;6.13;3.35;;;6.20;99.90;;;;;;5050115;28;20053;-64
2023/04/30 02:51:44;;;;;;;8.60;3.55;;;6.20;99.90;;;;;;5050626;28;20499;-65
2023/04/30 02:54:10;;;;;;;7.72;3.70;;;6.20;99.90;;;;;;5048921;28;20065;-64
2023/04/30 02:56:37;;;;;;;8.13;3.70;;;6.10;99.90;;;;;;5049291;28;20152;-67
2023/04/30 02:59:03;;;;;;;5.72;3.83;;;6.10;99.90;;;;;;5049542;28;20041;-62
2023/04/30 03:01:28;;;;;;;10.20;3.88;;;6.10;99.90;;;;;;5044214;28;20091;-62
2023/04/30 03:03:54;;;;;;;7.57;3.33;;;6.10;99.90;;;;;;5042095;28;20395;-63
2023/04/30 03:06:20;;;;;;;7.07;3.67;;;6.00;99.90;;;;;;5065802;28;20047;-65
2023/04/30 03:08:47;;;;;;;10.63;4.35;;;6.00;99.90;;;;;;5042129;28;20033;-64
2023/04/30 03:11:13;;;;;;;8.88;3.80;;;6.00;99.90;;;;;;5059036;28;21053;-64
2023/04/30 03:13:39;;;;;;;6.68;3.80;;;6.00;99.90;;;;;;5039726;28;20051;-64
2023/04/30 03:16:05;;;;;;;7.70;4.55;;;6.00;99.90;;;;;;5041260;28;20044;-66
2023/04/30 03:18:30;;;;;;;5.97;3.25;;;5.90;99.90;;;;;;5058170;28;20041;-63
2023/04/30 03:20:56;;;;;;;8.55;4.00;;;5.90;99.90;;;;;;5037437;28;20102;-65
2023/04/30 03:23:22;;;;;;;9.50;4.38;;;5.90;99.90;;;;;;5037105;28;20084;-64
2023/04/30 03:25:48;;;;;;;5.78;3.38;;;5.80;99.90;;;;;;5031964;28;20032;-64
2023/04/30 03:28:14;;;;;;;7.30;3.83;;;5.80;99.90;;;;;;5047703;28;20083;-64
2023/04/30 03:30:40;;;;;;;6.57;3.50;;;5.80;99.90;;;;;;5047663;28;20052;-64
2023/04/30 03:33:06;;;;;;;6.40;3.90;;;5.70;99.90;;;;;;5051853;28;20036;-63
2023/04/30 03:35:32;;;;;;;8.00;3.35;;;5.70;99.90;;;;;;5028834;28;20049;-64
2023/04/30 03:37:59;;;;;;;4.57;3.00;;;5.70;99.90;;;;;;5043406;28;20039;-64
2023/04/30 03:40:24;;;;;;;7.30;3.67;;;5.60;99.90;;;;;;5037949;28;20621;-66
2023/04/30 03:42:50;;;;;;;4.82;3.03;;;5.60;99.90;;;;;;5049447;28;20037;-64
2023/04/30 03:45:16;;;;;;;5.18;3.22;;;5.50;99.90;;;;;;5039676;28;20094;-66
2023/04/30 03:47:42;;;;;;;6.15;3.70;;;5.50;99.90;;;;;;5056775;28;20552;-64
2023/04/30 03:50:08;;;;;;;5.75;3.15;;;5.50;99.90;;;;;;5050934;28;20064;-63
2023/04/30 03:52:35;;;;;;;4.97;3.00;;;5.40;99.90;;;;;;5041250;28;20400;-66
2023/04/30 03:55:02;;;;;;;4.88;3.00;;;5.40;99.90;;;;;;5050083;28;20086;-64
2023/04/30 03:57:27;;;;;;;5.30;2.97;;;5.40;99.90;;;;;;5046824;28;20067;-64
2023/04/30 03:59:53;;;;;;;6.32;3.20;;;5.30;99.90;;;;;;5050454;28;20045;-65
2023/04/30 04:02:20;;;;;;;4.75;3.03;;;5.30;99.90;;;;;;5049219;28;20060;-64
2023/04/30 04:04:46;;;;;;;3.53;2.83;;;5.30;99.90;;;;;;5050370;28;20041;-64
2023/04/30 04:07:12;;;;;;;6.70;2.90;;;5.30;99.90;;;;;;5046913;28;20127;-66
2023/04/30 04:09:38;;;;;;;4.90;3.30;;;5.30;99.90;;;;;;5048332;28;20461;-67
2023/04/30 04:12:04;;;;;;;6.32;3.47;;;5.20;99.90;;;;;;5037657;28;20073;-63
2023/04/30 04:14:30;;;;;;;3.80;3.33;;;5.20;99.90;;;;;;5044030;28;20041;-62
2023/04/30 04:16:56;;;;;;;4.70;3.15;;;5.20;99.90;;;;;;5035150;28;20103;-63
2023/04/30 04:19:22;;;;;;;7.60;3.83;;;5.20;99.90;;;;;;5035738;28;20045;-63
2023/04/30 04:21:48;;;;;;;7.07;4.00;;;5.20;99.90;;;;;;5042732;28;20041;-65
2023/04/30 04:24:14;;;;;;;5.40;4.07;;;5.20;99.90;;;;;;5050249;28;20056;-64
2023/04/30 04:26:40;;;;;;;7.88;4.07;;;5.20;99.90;;;;;;5047062;28;20115;-63
2023/04/30 04:29:08;;;;;;;7.00;4.13;;;5.30;99.90;;;;;;5050069;28;20044;-66
2023/04/30 04:31:34;;;;;;;6.70;3.70;;;5.30;99.90;;;;;;5048264;28;20048;-63
2023/04/30 04:34:01;;;;;;;6.72;3.92;;;5.30;99.90;;;;;;5041954;28;20078;-63
2023/04/30 04:36:27;;;;;;;9.32;4.00;;;5.30;99.90;;;;;;5041013;28;20083;-64
2023/04/30 04:39:00;;;;;;;6.95;3.85;;;5.40;99.90;;;;;;5022826;28;20115;-64
2023/04/30 04:41:29;;;;;;;6.85;3.80;;;5.40;99.90;;;;;;5040997;28;20044;-64
2023/04/30 04:43:55;;;;;;;5.70;3.80;;;5.40;99.90;;;;;;5040050;28;20038;-63
2023/04/30 04:46:22;;;;;;;4.07;3.55;;;5.40;99.90;;;;;;5037672;28;20053;-62
2023/04/30 04:48:48;;;;;;;5.90;3.47;;;5.30;99.90;;;;;;5043474;28;20109;-64
2023/04/30 04:51:14;;;;;;;5.40;3.65;;;5.30;99.90;;;;;;5040212;28;20048;-65
2023/04/30 04:53:39;;;;;;;4.90;3.42;;;5.30;99.90;;;;;;5040457;28;21034;-64
2023/04/30 04:56:06;;;;;;;6.00;3.33;;;5.30;99.90;;;;;;5037023;28;20057;-64
2023/04/30 04:58:32;;;;;;;3.85;2.85;;;5.20;99.90;;;;;;5039258;28;20171;-65
2023/04/30 05:00:58;;;;;;;4.85;4.13;;;5.20;99.90;;;;;;5027261;28;20530;-65
2023/04/30 05:03:25;;;;;;;4.78;3.40;;;5.20;99.90;;;;;;5043002;28;20036;-65
2023/04/30 05:05:51;;;;;;;5.30;3.17;;;5.30;99.90;;;;;;5042914;28;20044;-64
2023/04/30 05:08:17;;;;;;;5.80;3.75;;;5.30;99.90;;;;;;5040031;28;20033;-64
2023/04/30 05:10:43;;;;;;;3.45;3.00;;;5.30;99.90;;;;;;5045242;28;20487;-63
2023/04/30 05:13:09;;;;;;;5.32;3.60;;;5.40;99.90;;;;;;5039838;28;20075;-65
2023/04/30 05:15:34;;;;;;;6.35;3.88;;;5.40;99.90;;;;;;5045013;28;20472;-65
2023/04/30 05:18:00;;;;;;;5.75;3.70;;;5.50;99.90;;;;;;5036580;28;20147;-63
2023/04/30 05:20:26;;;;;;;6.60;3.47;;;5.50;99.90;;;;;;5039328;28;20037;-65
2023/04/30 05:22:51;;;;;;;7.63;3.95;;;5.60;99.90;;;;;;5040281;28;20037;-64
2023/04/30 05:25:17;;;;;;;9.68;4.13;;;5.60;99.90;;;;;;5041643;28;20043;-63
2023/04/30 05:27:43;;;;;;;5.20;4.10;;;5.70;99.90;;;;;;5040063;28;20070;-64
2023/04/30 05:30:09;;;;;;;6.82;4.15;;;5.70;99.90;;;;;;5040045;28;20060;-64
2023/04/30 05:32:34;;;;;;;6.72;4.10;;;5.80;99.90;;;;;;5044287;28;20071;-64
2023/04/30 05:35:00;;;;;;;6.40;4.32;;;5.80;99.90;;;;;;5045677;28;20076;-65
2023/04/30 05:37:26;;;;;;;8.10;4.30;;;5.80;99.90;;;;;;5045011;28;20417;-65
2023/04/30 05:39:54;;;;;;;8.18;5.10;;;5.90;99.90;;;;;;5025567;28;20095;-63
2023/04/30 05:42:20;;;;;;;12.43;5.72;;;6.00;99.90;;;;;;5038431;28;20041;-64
2023/04/30 05:44:48;;;;;;;7.78;5.22;;;6.10;99.90;;;;;;5040763;28;20431;-64
2023/04/30 05:47:13;;;;;;;11.20;5.93;;;6.20;99.90;;;;;;5043019;28;20057;-63
2023/04/30 05:49:39;;;;;;;12.27;6.07;;;6.20;99.90;;;;;;5046363;28;20385;-62
2023/04/30 05:52:05;;;;;;;8.93;5.82;;;6.40;99.90;;;;;;5043909;28;20061;-66
2023/04/30 05:54:31;;;;;;;12.40;5.90;;;6.60;99.90;;;;;;5044570;28;20098;-64
2023/04/30 05:56:56;;;;;;;12.15;6.28;;;6.80;99.90;;;;;;5057794;28;20049;-64
2023/04/30 05:59:22;;;;;;;15.43;5.82;;;7.00;99.90;;;;;;5047008;28;20037;-64
2023/04/30 06:01:48;;;;;;;12.23;6.32;;;7.10;99.90;;;;;;5041899;28;20121;-63
2023/04/30 06:04:14;;;;;;;12.40;6.47;;;7.30;99.90;;;;;;5041843;28;20053;-64
2023/04/30 06:06:39;;;;;;;10.13;6.15;;;7.50;99.90;;;;;;5042607;28;20496;-64
2023/04/30 06:09:05;;;;;;;12.48;6.68;;;7.60;99.90;;;;;;5043807;28;20116;-65
2023/04/30 06:11:31;;;;;;;8.35;5.82;;;7.80;99.90;;;;;;5044736;28;20069;-65
2023/04/30 06:13:57;;;;;;;10.52;5.45;;;7.90;99.90;;;;;;5046100;28;20029;-63
2023/04/30 06:16:23;;;;;;;11.23;5.43;;;8.10;99.90;;;;;;5041856;28;20111;-64
2023/04/30 06:18:48;;;;;;;11.75;5.38;;;8.20;99.90;;;;;;5040526;28;20068;-62
2023/04/30 06:21:14;;;;;;;9.48;5.30;;;8.40;99.90;;;;;;5042691;28;20099;-64
2023/04/30 06:23:40;;;;;;;8.75;5.05;;;8.60;99.90;;;;;;5046105;28;20044;-64
2023/04/30 06:26:05;;;;;;;7.68;4.35;;;8.70;99.90;;;;;;5041820;28;20512;-63
2023/04/30 06:28:31;;;;;;;7.85;3.92;;;8.80;99.90;;;;;;5043055;28;20039;-64
2023/04/30 06:30:57;;;;;;;7.47;3.90;;;9.00;99.90;;;;;;5040416;28;20140;-63
2023/04/30 06:33:23;;;;;;;11.30;3.50;;;9.10;99.90;;;;;;5043770;28;20099;-64
2023/04/30 06:35:51;;;;;;;9.73;3.33;;;9.30;99.90;;;;;;5058825;28;20095;-63
2023/04/30 06:38:17;;;;;;;7.40;3.30;;;9.40;99.90;;;;;;5053062;28;20091;-64
2023/04/30 06:40:43;;;;;;;10.43;2.88;;;9.50;99.90;;;;;;5026614;28;20072;-64
2023/04/30 06:43:08;;;;;;;10.65;2.47;;;9.60;99.90;;;;;;5044465;28;20041;-65
2023/04/30 06:45:34;;;;;;;11.23;2.33;;;9.70;99.90;;;;;;5045237;28;20494;-64
2023/04/30 06:48:00;;;;;;;6.05;2.28;;;9.80;99.90;;;;;;5042661;28;20531;-64
2023/04/30 06:50:26;;;;;;;9.75;2.83;;;9.90;99.90;;;;;;5042703;28;20099;-66
2023/04/30 06:52:52;;;;;;;9.38;2.47;;;10.00;99.90;;;;;;5045591;28;20038;-67
2023/04/30 06:55:17;;;;;;;6.20;2.40;;;10.10;99.90;;;;;;5046425;28;20812;-63
2023/04/30 06:57:43;;;;;;;9.40;2.53;;;10.20;99.90;;;;;;5022788;28;20033;-66
2023/04/30 07:00:09;;;;;;;7.75;2.40;;;10.30;99.90;;;;;;5050865;28;20392;-65
2023/04/30 07:02:35;;;;;;;7.45;2.92;;;10.30;99.90;;;;;;5046408;28;20472;-62
2023/04/30 07:05:01;;;;;;;9.15;2.42;;;10.40;99.90;;;;;;5048753;28;20098;-62
2023/04/30 07:07:27;;;;;;;8.02;2.65;;;10.50;99.90;;;;;;5045227;28;20028;-60
2023/04/30 07:09:53;;;;;;;11.00;2.65;;;10.60;99.90;;;;;;5048842;28;20641;-60
2023/04/30 07:12:19;;;;;;;9.23;2.72;;;10.70;99.90;;;;;;5047831;28;20045;-62
2023/04/30 07:14:45;;;;;;;6.15;2.22;;;10.80;99.90;;;;;;5047203;28;20084;-63
2023/04/30 07:17:10;;;;;;;7.07;1.98;;;10.90;99.90;;;;;;5051645;28;20073;-61
2023/04/30 07:19:36;;;;;;;8.20;2.40;;;11.00;99.90;;;;;;5051765;28;20380;-63
2023/04/30 07:22:01;;;;;;;8.15;2.13;;;11.10;99.90;;;;;;5052592;28;20551;-61
2023/04/30 07:24:27;;;;;;;8.98;2.67;;;11.20;99.90;;;;;;5052750;28;20047;-62
2023/04/30 07:26:53;;;;;;;8.02;2.45;;;11.20;99.90;;;;;;5053163;28;20063;-61
2023/04/30 07:29:19;;;;;;;9.43;2.13;;;11.20;99.90;;;;;;5050031;28;20041;-63
2023/04/30 07:31:44;;;;;;;7.00;2.10;;;11.30;99.90;;;;;;5053141;28;20040;-61
2023/04/30 07:34:10;;;;;;;7.63;2.13;;;11.40;99.90;;;;;;5049998;28;20041;-62
2023/04/30 07:36:37;;;;;;;6.90;2.00;;;11.50;99.90;;;;;;5052955;28;20068;-63
2023/04/30 07:39:04;;;;;;;8.65;2.20;;;11.60;99.90;;;;;;5051908;28;20045;-61
2023/04/30 07:41:30;;;;;;;8.85;2.20;;;11.70;99.90;;;;;;5034752;28;20049;-62
2023/04/30 07:43:56;;;;;;;7.38;2.45;;;11.80;99.90;;;;;;5044122;28;20089;-62
2023/04/30 07:46:23;;;;;;;10.82;2.42;;;11.90;99.90;;;;;;5048948;28;20073;-62
2023/04/30 07:48:49;;;;;;;5.10;2.40;;;11.90;99.90;;;;;;5048896;28;20049;-61
2023/04/30 07:51:15;;;;;;;7.15;1.90;;;11.90;99.90;;;;;;5050017;28;20044;-63
2023/04/30 07:53:41;;;;;;;7.70;2.30;;;11.80;99.90;;;;;;5051454;28;20037;-62
2023/04/30 07:56:07;;;;;;;6.38;2.38;;;11.80;99.90;;;;;;5050755;28;20031;-61
2023/04/30 07:58:33;;;;;;;9.02;2.28;;;11.80;99.90;;;;;;5033987;28;20045;-63
2023/04/30 08:00:58;;;;;;;7.80;1.98;;;11.80;99.90;;;;;;5051807;28;20056;-62
2023/04/30 08:03:24;;;;;;;8.65;2.25;;;12.00;99.90;;;;;;5050825;28;20040;-62
2023/04/30 08:05:51;;;;;;;7.28;2.38;;;12.20;99.90;;;;;;5050769;28;20036;-61
2023/04/30 08:08:17;;;;;;;5.95;2.80;;;12.20;99.90;;;;;;5051146;28;20033;-61
2023/04/30 08:10:42;;;;;;;6.38;2.10;;;12.30;99.90;;;;;;5050404;28;20506;-62
2023/04/30 08:13:08;;;;;;;5.70;2.25;;;12.40;99.90;;;;;;5051640;28;20393;-61
2023/04/30 08:15:34;;;;;;;7.70;2.40;;;12.60;99.90;;;;;;5052062;28;20496;-62
2023/04/30 08:18:01;;;;;;;6.03;2.03;;;12.80;99.90;;;;;;5050733;28;20067;-60
2023/04/30 08:20:27;;;;;;;5.68;2.20;;;13.00;99.90;;;;;;5050600;28;20051;-63
2023/04/30 08:22:52;;;;;;;6.63;2.38;;;13.10;99.90;;;;;;5051966;28;20029;-63
2023/04/30 08:25:18;;;;;;;5.15;2.40;;;13.20;99.90;;;;;;5051570;28;20476;-61
2023/04/30 08:27:45;;;;;;;7.00;2.40;;;13.30;99.90;;;;;;5050454;28;20123;-61
2023/04/30 08:30:10;;;;;;;5.57;2.28;;;13.40;99.90;;;;;;5051515;28;20044;-61
2023/04/30 08:32:36;;;;;;;7.28;2.30;;;13.60;99.90;;;;;;5050032;28;20051;-61
2023/04/30 08:35:06;;;;;;;7.65;2.20;;;13.70;99.90;;;;;;5051380;28;20068;-61
2023/04/30 08:37:35;;;;;;;7.03;2.40;;;13.90;99.90;;;;;;5050057;28;20183;-63
2023/04/30 08:40:03;;;;;;;6.30;2.17;;;14.00;99.90;;;;;;5051303;28;20049;-63
2023/04/30 08:42:33;;;;;;;5.28;2.38;;;14.10;99.90;;;;;;5051567;28;20045;-60
2023/04/30 08:45:00;;;;;;;6.93;2.70;;;14.10;99.90;;;;;;5050024;28;20108;-63
2023/04/30 08:47:27;;;;;;;6.55;2.20;;;14.00;99.90;;;;;;5049960;28;20140;-61
2023/04/30 08:49:52;;;;;;;10.20;2.90;;;14.10;99.90;;;;;;5050775;28;20091;-62
2023/04/30 08:52:19;;;;;;;8.07;2.20;;;14.30;99.90;;;;;;5049824;28;20053;-63
2023/04/30 08:54:46;;;;;;;9.63;2.35;;;14.50;99.90;;;;;;5066382;28;20127;-62
2023/04/30 08:57:11;;;;;;;6.28;2.40;;;14.60;99.90;;;;;;5051326;28;20052;-62
2023/04/30 08:59:37;;;;;;;8.90;2.85;;;14.60;99.90;;;;;;5051079;28;20415;-63
2023/04/30 09:02:03;;;;;;;7.40;2.63;;;14.80;99.90;;;;;;5050727;28;20392;-63
2023/04/30 09:04:29;;;;;;;11.07;2.67;;;14.90;99.90;;;;;;5051146;28;20044;-63
2023/04/30 09:06:57;;;;;;;8.77;2.60;;;15.10;99.90;;;;;;5048752;28;20037;-63
2023/04/30 09:09:28;;;;;;;7.65;3.08;;;15.20;99.90;;;;;;5051082;28;20123;-61
2023/04/30 09:12:12;;;;;;;7.53;2.28;;;15.30;99.90;;;;;;5049872;28;20056;-62
2023/04/30 09:14:39;;;;;;;5.50;2.45;;;15.40;99.90;;;;;;5049835;28;20545;-63
2023/04/30 09:17:05;;;;;;;6.15;2.75;;;15.50;99.90;;;;;;5049775;28;20431;-61
2023/04/30 09:19:31;;;;;;;6.68;3.17;;;15.60;99.90;;;;;;5050669;28;20037;-60
2023/04/30 09:21:57;;;;;;;6.10;2.30;;;15.60;99.90;;;;;;5049626;28;20049;-62
2023/04/30 09:24:23;;;;;;;7.38;2.72;;;15.70;99.90;;;;;;5049540;28;20075;-63
2023/04/30 09:26:50;;;;;;;6.55;2.95;;;15.90;99.90;;;;;;5049308;28;20041;-62
2023/04/30 09:29:16;;;;;;;8.98;2.63;;;16.00;99.90;;;;;;5049281;28;20167;-62
2023/04/30 09:31:44;;;;;;;9.43;3.10;;;16.10;99.90;;;;;;5049518;28;20084;-63
2023/04/30 09:34:10;;;;;;;7.32;3.00;;;16.10;99.90;;;;;;5065995;28;20495;-62
2023/04/30 09:36:36;;;;;;;5.03;2.53;;;16.00;99.90;;;;;;5049713;28;20395;-63
2023/04/30 09:39:17;;;;;;;8.88;2.97;;;16.20;99.90;;;;;;5049454;28;20049;-64
2023/04/30 09:41:43;;;;;;;8.98;3.10;;;16.20;99.90;;;;;;5050520;28;20045;-61
2023/04/30 09:44:29;;;;;;;5.75;2.60;;;16.20;99.90;;;;;;5049145;28;20041;-61
2023/04/30 09:46:56;;;;;;;10.50;3.08;;;16.40;99.90;;;;;;5050743;28;20047;-61
2023/04/30 09:49:22;;;;;;;6.93;2.97;;;16.50;99.90;;;;;;5049226;28;20515;-62
2023/04/30 09:51:59;;;;;;;6.65;2.60;;;16.60;99.90;;;;;;5049394;28;20056;-63
2023/04/30 09:54:27;;;;;;;8.65;3.10;;;16.80;99.90;;;;;;5050577;28;20044;-61
2023/04/30 09:56:55;;;;;;;5.75;2.70;;;16.80;99.90;;;;;;5050278;28;20037;-63
2023/04/30 09:59:22;;;;;;;11.85;4.13;;;16.80;99.90;;;;;;5048988;28;20140;-63
2023/04/30 10:01:51;;;;;;;6.47;2.45;;;17.10;99.90;;;;;;5050229;28;20430;-61
2023/04/30 10:04:18;;;;;;;6.57;2.60;;;17.30;99.90;;;;;;5048698;28;20086;-62
2023/04/30 10:06:44;;;;;;;8.52;2.78;;;17.30;99.90;;;;;;5049215;28;20388;-61
2023/04/30 10:09:14;;;;;;;8.45;2.67;;;17.40;99.90;;;;;;5065716;28;20384;-60
2023/04/30 10:11:42;;;;;;;6.45;2.63;;;17.40;99.90;;;;;;5049993;28;20041;-61
2023/04/30 10:14:11;;;;;;;4.93;2.58;;;17.60;99.70;;;;;;5050251;28;20487;-61
2023/04/30 10:16:56;;;;;;;8.32;2.60;;;17.60;99.50;;;;;;5048821;28;20044;-62
2023/04/30 10:19:24;;;;;;;8.15;2.85;;;17.80;99.30;;;;;;5049905;28;20041;-62
2023/04/30 10:21:50;;;;;;;7.13;2.78;;;18.00;99.50;;;;;;5032140;28;20084;-63
2023/04/30 10:24:19;;;;;;;5.55;2.40;;;18.10;98.80;;;;;;5048621;28;20427;-61
2023/04/30 10:26:48;;;;;;;6.15;2.50;;;18.00;98.00;;;;;;5048726;28;20411;-61
2023/04/30 10:29:16;;;;;;;6.50;2.40;;;18.10;98.50;;;;;;5049922;28;20033;-60
2023/04/30 10:31:51;;;;;;;9.68;2.70;;;18.10;97.90;;;;;;5051658;28;20439;-63
2023/04/30 10:34:52;;;;;;;7.57;2.70;;;18.30;97.30;;;;;;5065762;28;20060;-62
2023/04/30 10:37:24;;;;;;;9.52;3.08;;;18.30;96.90;;;;;;5052110;28;20048;-63
2023/04/30 10:39:51;;;;;;;9.00;2.70;;;18.50;98.10;;;;;;5052035;28;20037;-62
2023/04/30 10:42:17;;;;;;;6.47;2.53;;;18.80;97.60;;;;;;5053366;28;20395;-63
2023/04/30 10:44:42;;;;;;;9.13;2.95;;;18.70;96.00;;;;;;5052045;28;20037;-62
2023/04/30 10:47:09;;;;;;;7.30;3.42;;;18.60;95.10;;;;;;5051747;28;20040;-63
2023/04/30 10:49:35;;;;;;;8.57;2.75;;;18.60;95.90;;;;;;5051902;28;20057;-62
2023/04/30 10:52:02;;;;;;;7.22;2.83;;;18.70;96.40;;;;;;5051851;28;20480;-62
2023/04/30 10:54:34;;;;;;;5.60;2.63;;;18.90;96.40;;;;;;5051816;28;20041;-62
2023/04/30 10:57:16;;;;;;;5.55;2.80;;;19.00;95.90;;;;;;5052330;28;20488;-63
2023/04/30 10:59:53;;;;;;;5.83;2.73;;;19.10;95.90;;;;;;5051841;28;20041;-63
2023/04/30 11:02:19;;;;;;;7.95;3.15;;;19.30;95.90;;;;;;5051752;28;20044;-62
2023/04/30 11:05:06;;;;;;;6.25;3.30;;;19.30;95.10;;;;;;5051808;28;20029;-61
2023/04/30 11:07:33;;;;;;;8.38;3.20;;;19.10;93.40;;;;;;5051808;28;20036;-62
2023/04/30 11:10:00;;;;;;;7.30;3.00;;;19.30;95.00;;;;;;5052857;28;20048;-63
2023/04/30 11:12:27;;;;;;;4.97;2.70;;;19.60;95.20;;;;;;5052711;28;20492;-61
2023/04/30 11:15:00;;;;;;;7.50;3.30;;;19.70;95.20;;;;;;5053278;28;20032;-63
2023/04/30 11:17:26;;;;;;;7.97;3.08;;;19.90;94.90;;;;;;5051317;28;20051;-63
2023/04/30 11:19:53;;;;;;;11.40;2.75;;;19.90;93.90;;;;;;5050156;28;20056;-61
2023/04/30 11:22:23;;;;;;;6.72;2.83;;;20.10;94.30;;;;;;5035730;28;20757;-61
2023/04/30 11:24:57;;;;;;;7.43;2.90;;;20.30;94.50;;;;;;5053131;28;20446;-63
2023/04/30 11:27:28;;;;;;;8.52;2.92;;;20.50;94.10;;;;;;5053154;28;20037;-62
2023/04/30 11:29:55;;;;;;;5.28;2.90;;;20.70;94.40;;;;;;5034930;28;20088;-63
2023/04/30 11:32:22;;;;;;;7.68;3.00;;;20.80;93.20;;;;;;5051864;28;20055;-62
2023/04/30 11:34:49;;;;;;;6.43;2.88;;;20.90;93.60;;;;;;5052711;28;20037;-62
2023/04/30 11:37:20;;;;;;;5.25;3.15;;;20.90;93.50;;;;;;5052984;28;20417;-64
2023/04/30 11:39:47;;;;;;;6.15;2.60;;;20.90;92.80;;;;;;5052826;28;20047;-63
2023/04/30 11:42:20;;;;;;;7.38;3.20;;;20.80;93.80;;;;;;5050768;28;20112;-62
2023/04/30 11:44:46;;;;;;;6.57;2.80;;;20.90;93.10;;;;;;5051276;28;20045;-63
2023/04/30 11:47:13;;;;;;;7.05;2.90;;;21.00;92.90;;;;;;5051599;28;20035;-62
2023/04/30 11:49:39;;;;;;;5.53;2.75;;;21.10;93.10;;;;;;5051095;28;20061;-62
2023/04/30 11:52:05;;;;;;;4.75;2.85;;;21.10;92.20;;;;;;5051449;28;20048;-62
2023/04/30 11:54:31;;;;;;;5.40;2.53;;;20.90;91.30;;;;;;5051736;28;20063;-64
2023/04/30 11:57:02;;;;;;;6.97;3.00;;;20.70;90.80;;;;;;5051106;28;20586;-62
2023/04/30 11:59:38;;;;;;;9.10;3.38;;;20.70;91.50;;;;;;5051366;28;20120;-61
2023/04/30 12:02:05;;;;;;;5.22;2.80;;;20.40;91.70;;;;;;5052540;28;20413;-62
2023/04/30 12:04:31;;;;;;;5.45;2.75;;;20.50;91.60;;;;;;5052701;28;20502;-61
2023/04/30 12:06:57;;;;;;;8.95;3.03;;;20.60;92.50;;;;;;5050932;28;20079;-62
2023/04/30 12:09:23;;;;;;;5.32;2.40;;;20.80;92.50;;;;;;5052584;28;20163;-61
2023/04/30 12:11:48;;;;;;;4.03;2.30;;;20.80;91.70;;;;;;5050621;28;20116;-63
2023/04/30 12:14:14;;;;;;;5.07;2.45;;;20.90;92.10;;;;;;5050946;28;20036;-62
2023/04/30 12:16:44;;;;;;;4.97;2.40;;;20.90;91.70;;;;;;5051804;28;20083;-61
2023/04/30 12:19:10;;;;;;;5.28;2.10;;;21.00;91.80;;;;;;5051102;28;20542;-63
2023/04/30 12:21:37;;;;;;;5.88;2.38;;;21.00;90.50;;;;;;5052374;28;20045;-62
2023/04/30 12:24:03;;;;;;;5.13;2.13;;;21.00;89.80;;;;;;5051871;28;20039;-62
2023/04/30 12:26:37;;;;;;;9.18;2.85;;;21.00;90.40;;;;;;5048282;28;20502;-62
2023/04/30 12:29:04;;;;;;;4.63;2.53;;;20.90;90.50;;;;;;5049520;28;20036;-61
2023/04/30 12:31:32;;;;;;;6.10;2.10;;;21.00;90.70;;;;;;5050389;28;20087;-63
2023/04/30 12:34:06;;;;;;;4.82;2.13;;;21.00;91.00;;;;;;5050194;28;20094;-61
2023/04/30 12:36:33;;;;;;;4.13;1.90;;;21.00;90.50;;;;;;5051806;28;20059;-61
2023/04/30 12:39:16;;;;;;;5.55;2.65;;;20.80;90.20;;;;;;5049807;28;20040;-61
2023/04/30 12:41:44;;;;;;;5.72;2.50;;;20.70;90.60;;;;;;5049770;28;20052;-61
2023/04/30 12:44:28;;;;;;;4.72;2.20;;;20.70;88.90;;;;;;5049768;28;20052;-62
2023/04/30 12:46:56;;;;;;;6.28;2.90;;;20.60;87.80;;;;;;5049877;28;20045;-61
2023/04/30 12:49:23;;;;;;;4.03;1.90;;;20.50;89.20;;;;;;5049773;28;20072;-62
2023/04/30 12:51:49;;;;;;;3.35;1.90;;;20.40;90.10;;;;;;5051130;28;20052;-63
2023/04/30 12:54:23;;;;;;;2.92;1.77;;;20.50;90.20;;;;;;5049518;28;20426;-61